sensor_id;sensor_type;location;lat;lon;timestamp;P1;durP1;ratioP1;P2;durP2;ratioP2
40074;SDS011;26529;51.530;11.754;2023-03-31T00:00:28;2.35;;;2.08;;
40074;SDS011;26529;51.530;11.754;2023-03-31T00:02:55;2.55;;;2.35;;
40074;SDS011;26529;51.530;11.754;2023-03-31T00:05:22;2.53;;;2.33;;
40074;SDS011;26529;51.530;11.754;2023-03-31T00:07:52;2.10;;;1.90;;
40074;SDS011;26529;51.530;11.754;2023-03-31T00:10:19;2.15;;;1.98;;
40074;SDS011;26529;51.530;11.754;2023-03-31T00:12:46;2.38;;;2.17;;
40074;SDS011;26529;51.530;11.754;2023-03-31T00:15:12;2.25;;;2.05;;
40074;SDS011;26529;51.530;11.754;2023-03-31T00:17:37;2.53;;;2.30;;
40074;SDS011;26529;51.530;11.754;2023-03-31T00:20:04;2.40;;;2.08;;
40074;SDS011;26529;51.530;11.754;2023-03-31T00:22:33;2.30;;;2.10;;
40074;SDS011;26529;51.530;11.754;2023-03-31T00:24:58;2.40;;;2.20;;
40074;SDS011;26529;51.530;11.754;2023-03-31T00:27:24;2.30;;;2.10;;
40074;SDS011;26529;51.530;11.754;2023-03-31T00:29:52;2.10;;;1.90;;
40074;SDS011;26529;51.530;11.754;2023-03-31T00:32:18;2.10;;;1.90;;
40074;SDS011;26529;51.530;11.754;2023-03-31T00:34:44;1.88;;;1.77;;
40074;SDS011;26529;51.530;11.754;2023-03-31T00:37:10;2.17;;;1.98;;
40074;SDS011;26529;51.530;11.754;2023-03-31T00:39:39;2.40;;;2.20;;
40074;SDS011;26529;51.530;11.754;2023-03-31T00:42:08;2.65;;;2.40;;
40074;SDS011;26529;51.530;11.754;2023-03-31T00:47:44;2.50;;;2.10;;
40074;SDS011;26529;51.530;11.754;2023-03-31T00:50:19;3.25;;;2.22;;
40074;SDS011;26529;51.530;11.754;2023-03-31T00:52:54;2.17;;;1.98;;
40074;SDS011;26529;51.530;11.754;2023-03-31T00:55:23;2.00;;;1.77;;
40074;SDS011;26529;51.530;11.754;2023-03-31T00:57:52;2.25;;;2.03;;
40074;SDS011;26529;51.530;11.754;2023-03-31T01:00:19;1.70;;;1.60;;
40074;SDS011;26529;51.530;11.754;2023-03-31T01:02:47;1.67;;;1.58;;
40074;SDS011;26529;51.530;11.754;2023-03-31T01:06:20;1.80;;;1.70;;
40074;SDS011;26529;51.530;11.754;2023-03-31T01:08:24;2.20;;;2.00;;
40074;SDS011;26529;51.530;11.754;2023-03-31T01:10:52;1.85;;;1.75;;
40074;SDS011;26529;51.530;11.754;2023-03-31T01:13:21;2.58;;;2.13;;
40074;SDS011;26529;51.530;11.754;2023-03-31T01:15:47;2.10;;;1.90;;
40074;SDS011;26529;51.530;11.754;2023-03-31T01:18:13;2.22;;;2.03;;
40074;SDS011;26529;51.530;11.754;2023-03-31T01:35:09;1.80;;;1.70;;
40074;SDS011;26529;51.530;11.754;2023-03-31T01:37:41;2.05;;;1.85;;
40074;SDS011;26529;51.530;11.754;2023-03-31T01:40:40;1.92;;;1.73;;
40074;SDS011;26529;51.530;11.754;2023-03-31T01:43:22;2.22;;;2.03;;
40074;SDS011;26529;51.530;11.754;2023-03-31T01:48:46;1.70;;;1.60;;
40074;SDS011;26529;51.530;11.754;2023-03-31T01:51:40;1.70;;;1.60;;
40074;SDS011;26529;51.530;11.754;2023-03-31T01:54:22;1.90;;;1.80;;
40074;SDS011;26529;51.530;11.754;2023-03-31T01:56:59;1.98;;;1.77;;
40074;SDS011;26529;51.530;11.754;2023-03-31T01:59:33;1.88;;;1.50;;
40074;SDS011;26529;51.530;11.754;2023-03-31T02:02:09;2.05;;;1.85;;
40074;SDS011;26529;51.530;11.754;2023-03-31T02:04:49;2.00;;;1.80;;
40074;SDS011;26529;51.530;11.754;2023-03-31T02:07:20;2.03;;;1.83;;
40074;SDS011;26529;51.530;11.754;2023-03-31T02:09:55;1.75;;;1.65;;
40074;SDS011;26529;51.530;11.754;2023-03-31T02:12:24;2.03;;;1.88;;
40074;SDS011;26529;51.530;11.754;2023-03-31T02:14:53;1.75;;;1.52;;
40074;SDS011;26529;51.530;11.754;2023-03-31T02:17:22;1.45;;;1.35;;
40074;SDS011;26529;51.530;11.754;2023-03-31T02:19:58;2.08;;;1.75;;
40074;SDS011;26529;51.530;11.754;2023-03-31T02:22:30;1.50;;;1.40;;
40074;SDS011;26529;51.530;11.754;2023-03-31T02:25:00;1.70;;;1.55;;
40074;SDS011;26529;51.530;11.754;2023-03-31T02:27:29;1.90;;;1.80;;
40074;SDS011;26529;51.530;11.754;2023-03-31T02:30:00;1.30;;;1.20;;
40074;SDS011;26529;51.530;11.754;2023-03-31T02:32:42;2.10;;;1.90;;
40074;SDS011;26529;51.530;11.754;2023-03-31T02:35:10;1.60;;;1.50;;
40074;SDS011;26529;51.530;11.754;2023-03-31T02:37:39;2.03;;;1.83;;
40074;SDS011;26529;51.530;11.754;2023-03-31T02:40:06;2.03;;;1.83;;
40074;SDS011;26529;51.530;11.754;2023-03-31T02:42:36;2.03;;;1.80;;
40074;SDS011;26529;51.530;11.754;2023-03-31T02:45:03;1.65;;;1.50;;
40074;SDS011;26529;51.530;11.754;2023-03-31T02:47:31;1.63;;;1.52;;
40074;SDS011;26529;51.530;11.754;2023-03-31T02:49:58;1.92;;;1.50;;
40074;SDS011;26529;51.530;11.754;2023-03-31T02:52:33;1.70;;;1.60;;
40074;SDS011;26529;51.530;11.754;2023-03-31T03:00:43;1.48;;;1.38;;
40074;SDS011;26529;51.530;11.754;2023-03-31T03:03:38;2.03;;;1.83;;
40074;SDS011;26529;51.530;11.754;2023-03-31T03:06:27;2.00;;;1.80;;
40074;SDS011;26529;51.530;11.754;2023-03-31T03:12:23;1.60;;;1.50;;
40074;SDS011;26529;51.530;11.754;2023-03-31T03:14:54;1.90;;;1.70;;
40074;SDS011;26529;51.530;11.754;2023-03-31T03:17:30;2.20;;;1.58;;
40074;SDS011;26529;51.530;11.754;2023-03-31T03:20:01;1.73;;;1.45;;
40074;SDS011;26529;51.530;11.754;2023-03-31T03:22:32;1.73;;;1.45;;
40074;SDS011;26529;51.530;11.754;2023-03-31T03:24:57;1.55;;;1.45;;
40074;SDS011;26529;51.530;11.754;2023-03-31T03:27:23;1.67;;;1.33;;
40074;SDS011;26529;51.530;11.754;2023-03-31T03:29:48;1.40;;;1.30;;
40074;SDS011;26529;51.530;11.754;2023-03-31T03:32:14;1.65;;;1.50;;
40074;SDS011;26529;51.530;11.754;2023-03-31T03:34:39;1.40;;;1.30;;
40074;SDS011;26529;51.530;11.754;2023-03-31T03:37:04;1.83;;;1.67;;
40074;SDS011;26529;51.530;11.754;2023-03-31T03:39:30;1.60;;;1.50;;
40074;SDS011;26529;51.530;11.754;2023-03-31T03:41:56;1.50;;;1.38;;
40074;SDS011;26529;51.530;11.754;2023-03-31T03:44:21;1.92;;;1.70;;
40074;SDS011;26529;51.530;11.754;2023-03-31T03:46:47;1.70;;;1.60;;
40074;SDS011;26529;51.530;11.754;2023-03-31T03:49:12;1.75;;;1.42;;
40074;SDS011;26529;51.530;11.754;2023-03-31T03:51:38;1.60;;;1.50;;
40074;SDS011;26529;51.530;11.754;2023-03-31T03:54:03;1.73;;;1.45;;
40074;SDS011;26529;51.530;11.754;2023-03-31T03:56:29;1.83;;;1.73;;
40074;SDS011;26529;51.530;11.754;2023-03-31T03:58:55;1.27;;;1.17;;
40074;SDS011;26529;51.530;11.754;2023-03-31T04:01:21;1.33;;;1.23;;
40074;SDS011;26529;51.530;11.754;2023-03-31T04:03:47;1.65;;;1.55;;
40074;SDS011;26529;51.530;11.754;2023-03-31T04:06:13;1.60;;;1.50;;
40074;SDS011;26529;51.530;11.754;2023-03-31T04:08:38;1.35;;;1.20;;
40074;SDS011;26529;51.530;11.754;2023-03-31T04:11:08;1.58;;;1.48;;
40074;SDS011;26529;51.530;11.754;2023-03-31T04:13:37;1.85;;;1.40;;
40074;SDS011;26529;51.530;11.754;2023-03-31T04:16:03;1.67;;;1.55;;
40074;SDS011;26529;51.530;11.754;2023-03-31T04:18:28;1.25;;;1.10;;
40074;SDS011;26529;51.530;11.754;2023-03-31T04:20:54;1.73;;;1.10;;
40074;SDS011;26529;51.530;11.754;2023-03-31T04:23:35;1.83;;;1.40;;
40074;SDS011;26529;51.530;11.754;2023-03-31T04:26:10;1.48;;;1.38;;
40074;SDS011;26529;51.530;11.754;2023-03-31T04:28:37;1.38;;;1.27;;
40074;SDS011;26529;51.530;11.754;2023-03-31T04:31:09;1.30;;;1.20;;
40074;SDS011;26529;51.530;11.754;2023-03-31T04:33:40;1.27;;;1.17;;
40074;SDS011;26529;51.530;11.754;2023-03-31T04:36:06;1.48;;;1.38;;
40074;SDS011;26529;51.530;11.754;2023-03-31T04:38:44;1.48;;;1.38;;
40074;SDS011;26529;51.530;11.754;2023-03-31T04:41:14;1.52;;;1.38;;
40074;SDS011;26529;51.530;11.754;2023-03-31T04:43:39;1.25;;;1.15;;
40074;SDS011;26529;51.530;11.754;2023-03-31T04:46:05;1.80;;;1.55;;
40074;SDS011;26529;51.530;11.754;2023-03-31T04:48:30;1.60;;;1.30;;
40074;SDS011;26529;51.530;11.754;2023-03-31T04:50:56;1.70;;;1.25;;
40074;SDS011;26529;51.530;11.754;2023-03-31T04:53:21;1.25;;;1.15;;
40074;SDS011;26529;51.530;11.754;2023-03-31T04:55:47;1.65;;;1.40;;
40074;SDS011;26529;51.530;11.754;2023-03-31T04:58:14;1.20;;;1.10;;
40074;SDS011;26529;51.530;11.754;2023-03-31T05:00:40;1.73;;;1.33;;
40074;SDS011;26529;51.530;11.754;2023-03-31T05:03:05;1.20;;;1.10;;
40074;SDS011;26529;51.530;11.754;2023-03-31T05:05:31;1.92;;;1.45;;
40074;SDS011;26529;51.530;11.754;2023-03-31T05:07:57;1.33;;;1.20;;
40074;SDS011;26529;51.530;11.754;2023-03-31T05:10:22;1.35;;;1.25;;
40074;SDS011;26529;51.530;11.754;2023-03-31T05:12:48;1.85;;;1.55;;
40074;SDS011;26529;51.530;11.754;2023-03-31T05:15:14;1.30;;;1.20;;
40074;SDS011;26529;51.530;11.754;2023-03-31T05:17:39;1.40;;;1.13;;
40074;SDS011;26529;51.530;11.754;2023-03-31T05:20:05;1.25;;;1.13;;
40074;SDS011;26529;51.530;11.754;2023-03-31T05:22:35;1.35;;;1.23;;
40074;SDS011;26529;51.530;11.754;2023-03-31T05:25:03;1.13;;;1.02;;
40074;SDS011;26529;51.530;11.754;2023-03-31T05:27:30;1.20;;;1.08;;
40074;SDS011;26529;51.530;11.754;2023-03-31T05:29:55;1.50;;;1.33;;
40074;SDS011;26529;51.530;11.754;2023-03-31T05:32:21;1.50;;;1.40;;
40074;SDS011;26529;51.530;11.754;2023-03-31T05:34:46;1.65;;;1.38;;
40074;SDS011;26529;51.530;11.754;2023-03-31T05:37:13;1.38;;;1.27;;
40074;SDS011;26529;51.530;11.754;2023-03-31T05:39:39;1.23;;;1.13;;
40074;SDS011;26529;51.530;11.754;2023-03-31T05:42:05;1.27;;;1.10;;
40074;SDS011;26529;51.530;11.754;2023-03-31T05:44:31;1.40;;;1.30;;
40074;SDS011;26529;51.530;11.754;2023-03-31T05:46:57;1.73;;;1.20;;
40074;SDS011;26529;51.530;11.754;2023-03-31T05:49:22;0.90;;;0.90;;
40074;SDS011;26529;51.530;11.754;2023-03-31T05:51:48;1.17;;;1.00;;
40074;SDS011;26529;51.530;11.754;2023-03-31T05:54:13;1.00;;;0.90;;
40074;SDS011;26529;51.530;11.754;2023-03-31T05:56:39;1.40;;;1.13;;
40074;SDS011;26529;51.530;11.754;2023-03-31T05:59:04;1.00;;;0.90;;
40074;SDS011;26529;51.530;11.754;2023-03-31T06:01:30;1.17;;;1.05;;
40074;SDS011;26529;51.530;11.754;2023-03-31T06:03:55;1.52;;;1.25;;
40074;SDS011;26529;51.530;11.754;2023-03-31T06:06:21;1.15;;;1.05;;
40074;SDS011;26529;51.530;11.754;2023-03-31T06:08:47;1.83;;;1.40;;
40074;SDS011;26529;51.530;11.754;2023-03-31T06:11:17;1.15;;;1.05;;
40074;SDS011;26529;51.530;11.754;2023-03-31T06:13:44;1.50;;;1.40;;
40074;SDS011;26529;51.530;11.754;2023-03-31T06:16:11;1.38;;;1.23;;
40074;SDS011;26529;51.530;11.754;2023-03-31T06:18:37;1.58;;;1.48;;
40074;SDS011;26529;51.530;11.754;2023-03-31T06:21:03;1.75;;;1.30;;
40074;SDS011;26529;51.530;11.754;2023-03-31T06:23:30;1.63;;;1.20;;
40074;SDS011;26529;51.530;11.754;2023-03-31T06:25:59;1.58;;;1.38;;
40074;SDS011;26529;51.530;11.754;2023-03-31T06:28:26;2.35;;;1.30;;
40074;SDS011;26529;51.530;11.754;2023-03-31T06:30:59;1.10;;;1.00;;
40074;SDS011;26529;51.530;11.754;2023-03-31T06:33:25;1.85;;;1.30;;
40074;SDS011;26529;51.530;11.754;2023-03-31T06:35:51;1.23;;;1.13;;
40074;SDS011;26529;51.530;11.754;2023-03-31T06:38:20;0.98;;;0.93;;
40074;SDS011;26529;51.530;11.754;2023-03-31T06:40:45;1.63;;;1.48;;
40074;SDS011;26529;51.530;11.754;2023-03-31T06:43:11;1.48;;;1.38;;
40074;SDS011;26529;51.530;11.754;2023-03-31T06:45:36;1.50;;;1.35;;
40074;SDS011;26529;51.530;11.754;2023-03-31T06:48:01;1.48;;;1.38;;
40074;SDS011;26529;51.530;11.754;2023-03-31T06:50:27;1.42;;;1.30;;
40074;SDS011;26529;51.530;11.754;2023-03-31T06:52:52;1.38;;;1.27;;
40074;SDS011;26529;51.530;11.754;2023-03-31T06:55:19;1.42;;;1.30;;
40074;SDS011;26529;51.530;11.754;2023-03-31T06:57:45;1.38;;;1.27;;
40074;SDS011;26529;51.530;11.754;2023-03-31T07:00:10;1.40;;;1.10;;
40074;SDS011;26529;51.530;11.754;2023-03-31T07:02:36;1.65;;;1.20;;
40074;SDS011;26529;51.530;11.754;2023-03-31T07:05:02;1.20;;;1.10;;
40074;SDS011;26529;51.530;11.754;2023-03-31T07:07:30;1.20;;;1.10;;
40074;SDS011;26529;51.530;11.754;2023-03-31T07:09:56;1.33;;;1.20;;
40074;SDS011;26529;51.530;11.754;2023-03-31T07:12:22;1.65;;;1.17;;
40074;SDS011;26529;51.530;11.754;2023-03-31T07:14:48;1.48;;;1.38;;
40074;SDS011;26529;51.530;11.754;2023-03-31T07:17:14;1.40;;;1.20;;
40074;SDS011;26529;51.530;11.754;2023-03-31T07:19:39;1.13;;;1.10;;
40074;SDS011;26529;51.530;11.754;2023-03-31T07:22:06;1.17;;;1.08;;
40074;SDS011;26529;51.530;11.754;2023-03-31T07:24:32;1.90;;;1.35;;
40074;SDS011;26529;51.530;11.754;2023-03-31T07:26:58;1.23;;;1.13;;
40074;SDS011;26529;51.530;11.754;2023-03-31T07:29:23;1.45;;;1.20;;
40074;SDS011;26529;51.530;11.754;2023-03-31T07:31:49;1.20;;;1.10;;
40074;SDS011;26529;51.530;11.754;2023-03-31T07:34:15;1.52;;;1.42;;
40074;SDS011;26529;51.530;11.754;2023-03-31T07:36:41;1.20;;;1.00;;
40074;SDS011;26529;51.530;11.754;2023-03-31T07:39:06;1.63;;;1.10;;
40074;SDS011;26529;51.530;11.754;2023-03-31T07:41:32;1.25;;;1.15;;
40074;SDS011;26529;51.530;11.754;2023-03-31T07:43:57;1.30;;;1.13;;
40074;SDS011;26529;51.530;11.754;2023-03-31T07:46:24;1.13;;;1.02;;
40074;SDS011;26529;51.530;11.754;2023-03-31T07:48:52;1.92;;;1.30;;
40074;SDS011;26529;51.530;11.754;2023-03-31T07:51:20;1.42;;;1.20;;
40074;SDS011;26529;51.530;11.754;2023-03-31T07:53:48;1.40;;;1.30;;
40074;SDS011;26529;51.530;11.754;2023-03-31T07:56:16;1.70;;;1.20;;
40074;SDS011;26529;51.530;11.754;2023-03-31T07:58:47;1.23;;;1.05;;
40074;SDS011;26529;51.530;11.754;2023-03-31T08:01:14;1.42;;;1.23;;
40074;SDS011;26529;51.530;11.754;2023-03-31T08:03:41;1.15;;;1.05;;
40074;SDS011;26529;51.530;11.754;2023-03-31T08:06:08;1.30;;;1.20;;
40074;SDS011;26529;51.530;11.754;2023-03-31T08:08:33;1.20;;;1.10;;
40074;SDS011;26529;51.530;11.754;2023-03-31T08:11:02;1.25;;;1.15;;
40074;SDS011;26529;51.530;11.754;2023-03-31T08:13:28;1.27;;;1.17;;
40074;SDS011;26529;51.530;11.754;2023-03-31T08:15:53;1.52;;;1.00;;
40074;SDS011;26529;51.530;11.754;2023-03-31T08:18:19;1.73;;;1.27;;
40074;SDS011;26529;51.530;11.754;2023-03-31T08:20:44;2.08;;;1.27;;
40074;SDS011;26529;51.530;11.754;2023-03-31T08:23:10;1.40;;;1.20;;
40074;SDS011;26529;51.530;11.754;2023-03-31T08:25:36;1.58;;;1.20;;
40074;SDS011;26529;51.530;11.754;2023-03-31T08:28:02;1.40;;;1.30;;
40074;SDS011;26529;51.530;11.754;2023-03-31T08:30:28;1.35;;;0.85;;
40074;SDS011;26529;51.530;11.754;2023-03-31T08:32:53;1.23;;;1.10;;
40074;SDS011;26529;51.530;11.754;2023-03-31T08:35:18;1.83;;;1.50;;
40074;SDS011;26529;51.530;11.754;2023-03-31T08:37:44;1.25;;;1.15;;
40074;SDS011;26529;51.530;11.754;2023-03-31T08:40:18;3.53;;;0.90;;
40074;SDS011;26529;51.530;11.754;2023-03-31T08:42:50;1.30;;;1.13;;
40074;SDS011;26529;51.530;11.754;2023-03-31T08:45:30;1.08;;;0.98;;
40074;SDS011;26529;51.530;11.754;2023-03-31T08:48:03;1.70;;;1.13;;
40074;SDS011;26529;51.530;11.754;2023-03-31T08:50:35;1.17;;;0.95;;
40074;SDS011;26529;51.530;11.754;2023-03-31T08:53:19;1.30;;;1.20;;
40074;SDS011;26529;51.530;11.754;2023-03-31T08:55:48;1.80;;;1.20;;
40074;SDS011;26529;51.530;11.754;2023-03-31T09:06:21;1.13;;;1.03;;
40074;SDS011;26529;51.530;11.754;2023-03-31T09:08:54;1.30;;;1.20;;
40074;SDS011;26529;51.530;11.754;2023-03-31T09:16:54;1.10;;;0.85;;
40074;SDS011;26529;51.530;11.754;2023-03-31T09:19:40;1.08;;;0.90;;
40074;SDS011;26529;51.530;11.754;2023-03-31T09:22:18;0.98;;;0.90;;
40074;SDS011;26529;51.530;11.754;2023-03-31T09:25:03;1.40;;;1.17;;
40074;SDS011;26529;51.530;11.754;2023-03-31T09:27:34;1.77;;;1.38;;
40074;SDS011;26529;51.530;11.754;2023-03-31T09:30:03;1.02;;;0.93;;
40074;SDS011;26529;51.530;11.754;2023-03-31T09:32:34;1.05;;;0.95;;
40074;SDS011;26529;51.530;11.754;2023-03-31T09:35:13;1.38;;;1.20;;
40074;SDS011;26529;51.530;11.754;2023-03-31T09:37:41;1.63;;;1.00;;
40074;SDS011;26529;51.530;11.754;2023-03-31T09:40:07;1.30;;;1.10;;
40074;SDS011;26529;51.530;11.754;2023-03-31T09:42:40;1.40;;;1.30;;
40074;SDS011;26529;51.530;11.754;2023-03-31T09:45:11;0.90;;;0.80;;
40074;SDS011;26529;51.530;11.754;2023-03-31T09:47:53;1.95;;;1.17;;
40074;SDS011;26529;51.530;11.754;2023-03-31T09:50:21;1.13;;;0.90;;
40074;SDS011;26529;51.530;11.754;2023-03-31T09:52:49;1.20;;;1.10;;
40074;SDS011;26529;51.530;11.754;2023-03-31T09:58:30;1.85;;;1.00;;
40074;SDS011;26529;51.530;11.754;2023-03-31T10:01:05;0.93;;;0.82;;
40074;SDS011;26529;51.530;11.754;2023-03-31T10:03:33;1.50;;;1.27;;
40074;SDS011;26529;51.530;11.754;2023-03-31T10:06:19;1.17;;;1.08;;
40074;SDS011;26529;51.530;11.754;2023-03-31T10:08:48;1.45;;;1.05;;
40074;SDS011;26529;51.530;11.754;2023-03-31T10:11:18;1.55;;;1.10;;
40074;SDS011;26529;51.530;11.754;2023-03-31T10:19:18;1.08;;;0.93;;
40074;SDS011;26529;51.530;11.754;2023-03-31T10:21:47;1.40;;;0.90;;
40074;SDS011;26529;51.530;11.754;2023-03-31T10:24:19;1.20;;;1.10;;
40074;SDS011;26529;51.530;11.754;2023-03-31T10:26:47;1.05;;;0.95;;
40074;SDS011;26529;51.530;11.754;2023-03-31T10:29:15;1.10;;;1.00;;
40074;SDS011;26529;51.530;11.754;2023-03-31T10:31:46;1.67;;;1.17;;
40074;SDS011;26529;51.530;11.754;2023-03-31T10:34:13;1.30;;;1.10;;
40074;SDS011;26529;51.530;11.754;2023-03-31T10:36:47;1.08;;;0.98;;
40074;SDS011;26529;51.530;11.754;2023-03-31T10:39:16;1.23;;;0.90;;
40074;SDS011;26529;51.530;11.754;2023-03-31T10:41:43;1.13;;;1.02;;
40074;SDS011;26529;51.530;11.754;2023-03-31T10:44:34;1.05;;;0.95;;
40074;SDS011;26529;51.530;11.754;2023-03-31T10:47:03;1.15;;;1.05;;
40074;SDS011;26529;51.530;11.754;2023-03-31T10:49:33;1.38;;;1.05;;
40074;SDS011;26529;51.530;11.754;2023-03-31T10:52:02;1.10;;;0.95;;
40074;SDS011;26529;51.530;11.754;2023-03-31T10:54:28;1.10;;;1.00;;
40074;SDS011;26529;51.530;11.754;2023-03-31T10:56:54;1.45;;;1.10;;
40074;SDS011;26529;51.530;11.754;2023-03-31T11:05:04;1.50;;;1.20;;
40074;SDS011;26529;51.530;11.754;2023-03-31T11:07:40;1.00;;;0.90;;
40074;SDS011;26529;51.530;11.754;2023-03-31T11:23:41;0.90;;;0.75;;
40074;SDS011;26529;51.530;11.754;2023-03-31T11:29:05;1.30;;;1.20;;
40074;SDS011;26529;51.530;11.754;2023-03-31T11:31:51;1.30;;;1.10;;
40074;SDS011;26529;51.530;11.754;2023-03-31T11:34:24;1.27;;;0.90;;
40074;SDS011;26529;51.530;11.754;2023-03-31T11:39:59;1.17;;;0.98;;
40074;SDS011;26529;51.530;11.754;2023-03-31T11:42:33;1.20;;;1.05;;
40074;SDS011;26529;51.530;11.754;2023-03-31T11:45:04;1.05;;;0.90;;
40074;SDS011;26529;51.530;11.754;2023-03-31T11:47:40;1.30;;;1.10;;
40074;SDS011;26529;51.530;11.754;2023-03-31T11:50:10;1.02;;;0.93;;
40074;SDS011;26529;51.530;11.754;2023-03-31T11:52:59;1.27;;;1.08;;
40074;SDS011;26529;51.530;11.754;2023-03-31T11:55:29;1.45;;;1.17;;
40074;SDS011;26529;51.530;11.754;2023-03-31T11:57:58;1.92;;;1.30;;
40074;SDS011;26529;51.530;11.754;2023-03-31T12:00:32;0.85;;;0.85;;
40074;SDS011;26529;51.530;11.754;2023-03-31T12:05:54;1.80;;;0.90;;
40074;SDS011;26529;51.530;11.754;2023-03-31T12:11:32;0.80;;;0.80;;
40074;SDS011;26529;51.530;11.754;2023-03-31T12:14:20;1.50;;;1.15;;
40074;SDS011;26529;51.530;11.754;2023-03-31T12:16:53;2.47;;;1.10;;
40074;SDS011;26529;51.530;11.754;2023-03-31T12:19:38;2.08;;;1.20;;
40074;SDS011;26529;51.530;11.754;2023-03-31T12:22:16;1.13;;;0.90;;
40074;SDS011;26529;51.530;11.754;2023-03-31T12:24:46;1.15;;;1.05;;
40074;SDS011;26529;51.530;11.754;2023-03-31T12:27:13;0.85;;;0.80;;
40074;SDS011;26529;51.530;11.754;2023-03-31T12:29:49;0.70;;;0.70;;
40074;SDS011;26529;51.530;11.754;2023-03-31T12:32:21;1.20;;;0.98;;
40074;SDS011;26529;51.530;11.754;2023-03-31T12:37:42;1.05;;;0.95;;
40074;SDS011;26529;51.530;11.754;2023-03-31T12:40:45;0.93;;;0.88;;
40074;SDS011;26529;51.530;11.754;2023-03-31T12:43:36;1.30;;;1.15;;
40074;SDS011;26529;51.530;11.754;2023-03-31T12:46:19;0.90;;;0.80;;
40074;SDS011;26529;51.530;11.754;2023-03-31T12:48:57;1.20;;;0.80;;
40074;SDS011;26529;51.530;11.754;2023-03-31T12:51:57;1.08;;;0.98;;
40074;SDS011;26529;51.530;11.754;2023-03-31T12:57:34;1.13;;;1.00;;
40074;SDS011;26529;51.530;11.754;2023-03-31T13:02:45;1.40;;;0.80;;
40074;SDS011;26529;51.530;11.754;2023-03-31T13:08:02;1.00;;;0.90;;
40074;SDS011;26529;51.530;11.754;2023-03-31T13:10:29;1.10;;;0.85;;
40074;SDS011;26529;51.530;11.754;2023-03-31T13:15:37;1.25;;;1.15;;
40074;SDS011;26529;51.530;11.754;2023-03-31T13:18:03;0.77;;;0.68;;
40074;SDS011;26529;51.530;11.754;2023-03-31T13:25:42;1.10;;;1.00;;
40074;SDS011;26529;51.530;11.754;2023-03-31T13:28:09;1.33;;;1.00;;
40074;SDS011;26529;51.530;11.754;2023-03-31T13:35:46;1.10;;;1.00;;
40074;SDS011;26529;51.530;11.754;2023-03-31T13:51:57;1.08;;;0.95;;
40074;SDS011;26529;51.530;11.754;2023-03-31T13:59:39;1.00;;;0.80;;
40074;SDS011;26529;51.530;11.754;2023-03-31T14:02:37;1.15;;;1.00;;
40074;SDS011;26529;51.530;11.754;2023-03-31T14:07:49;1.10;;;1.00;;
40074;SDS011;26529;51.530;11.754;2023-03-31T14:10:20;1.20;;;1.00;;
40074;SDS011;26529;51.530;11.754;2023-03-31T14:13:04;0.80;;;0.80;;
40074;SDS011;26529;51.530;11.754;2023-03-31T14:15:34;1.38;;;1.20;;
40074;SDS011;26529;51.530;11.754;2023-03-31T14:18:02;0.93;;;0.88;;
40074;SDS011;26529;51.530;11.754;2023-03-31T14:20:40;1.52;;;1.15;;
40074;SDS011;26529;51.530;11.754;2023-03-31T14:23:32;0.80;;;0.75;;
40074;SDS011;26529;51.530;11.754;2023-03-31T14:37:12;1.10;;;1.00;;
40074;SDS011;26529;51.530;11.754;2023-03-31T14:42:50;0.90;;;0.82;;
40074;SDS011;26529;51.530;11.754;2023-03-31T14:45:04;1.30;;;0.85;;
40074;SDS011;26529;51.530;11.754;2023-03-31T14:47:39;1.50;;;1.35;;
40074;SDS011;26529;51.530;11.754;2023-03-31T14:50:11;1.10;;;1.00;;
40074;SDS011;26529;51.530;11.754;2023-03-31T14:52:40;1.30;;;1.20;;
40074;SDS011;26529;51.530;11.754;2023-03-31T14:55:17;1.55;;;1.15;;
40074;SDS011;26529;51.530;11.754;2023-03-31T14:57:46;1.52;;;1.13;;
40074;SDS011;26529;51.530;11.754;2023-03-31T15:00:23;0.98;;;0.90;;
40074;SDS011;26529;51.530;11.754;2023-03-31T15:02:51;1.10;;;1.00;;
40074;SDS011;26529;51.530;11.754;2023-03-31T15:05:33;1.30;;;1.10;;
40074;SDS011;26529;51.530;11.754;2023-03-31T15:08:01;1.23;;;1.00;;
40074;SDS011;26529;51.530;11.754;2023-03-31T15:10:31;1.42;;;0.90;;
40074;SDS011;26529;51.530;11.754;2023-03-31T15:13:01;2.03;;;1.00;;
40074;SDS011;26529;51.530;11.754;2023-03-31T15:15:32;1.00;;;0.75;;
40074;SDS011;26529;51.530;11.754;2023-03-31T15:17:58;1.23;;;1.00;;
40074;SDS011;26529;51.530;11.754;2023-03-31T15:20:25;1.33;;;1.10;;
40074;SDS011;26529;51.530;11.754;2023-03-31T15:22:57;1.20;;;1.10;;
40074;SDS011;26529;51.530;11.754;2023-03-31T15:25:24;1.02;;;0.88;;
40074;SDS011;26529;51.530;11.754;2023-03-31T15:27:55;1.10;;;1.00;;
40074;SDS011;26529;51.530;11.754;2023-03-31T15:30:25;1.20;;;1.10;;
40074;SDS011;26529;51.530;11.754;2023-03-31T15:32:53;0.88;;;0.80;;
40074;SDS011;26529;51.530;11.754;2023-03-31T15:35:19;1.20;;;1.00;;
40074;SDS011;26529;51.530;11.754;2023-03-31T15:37:51;1.10;;;1.00;;
40074;SDS011;26529;51.530;11.754;2023-03-31T15:40:21;1.30;;;1.10;;
40074;SDS011;26529;51.530;11.754;2023-03-31T15:42:57;0.90;;;0.85;;
40074;SDS011;26529;51.530;11.754;2023-03-31T15:45:37;1.40;;;1.08;;
40074;SDS011;26529;51.530;11.754;2023-03-31T15:48:17;1.00;;;0.90;;
40074;SDS011;26529;51.530;11.754;2023-03-31T15:50:45;1.20;;;1.05;;
40074;SDS011;26529;51.530;11.754;2023-03-31T15:53:24;1.00;;;0.88;;
40074;SDS011;26529;51.530;11.754;2023-03-31T15:55:55;1.50;;;1.17;;
40074;SDS011;26529;51.530;11.754;2023-03-31T15:58:45;1.13;;;0.95;;
40074;SDS011;26529;51.530;11.754;2023-03-31T16:01:10;1.25;;;1.15;;
40074;SDS011;26529;51.530;11.754;2023-03-31T16:03:39;1.20;;;1.10;;
40074;SDS011;26529;51.530;11.754;2023-03-31T16:06:52;1.02;;;0.93;;
40074;SDS011;26529;51.530;11.754;2023-03-31T16:09:51;1.58;;;0.93;;
40074;SDS011;26529;51.530;11.754;2023-03-31T16:12:19;1.08;;;0.85;;
40074;SDS011;26529;51.530;11.754;2023-03-31T16:14:49;0.95;;;0.93;;
40074;SDS011;26529;51.530;11.754;2023-03-31T16:17:23;1.95;;;1.20;;
40074;SDS011;26529;51.530;11.754;2023-03-31T16:19:58;0.93;;;0.60;;
40074;SDS011;26529;51.530;11.754;2023-03-31T16:22:36;1.10;;;1.00;;
40074;SDS011;26529;51.530;11.754;2023-03-31T16:25:15;1.50;;;1.05;;
40074;SDS011;26529;51.530;11.754;2023-03-31T16:27:45;0.90;;;0.88;;
40074;SDS011;26529;51.530;11.754;2023-03-31T16:30:18;1.13;;;1.02;;
40074;SDS011;26529;51.530;11.754;2023-03-31T16:33:02;1.15;;;1.05;;
40074;SDS011;26529;51.530;11.754;2023-03-31T16:35:29;1.00;;;0.90;;
40074;SDS011;26529;51.530;11.754;2023-03-31T16:37:59;0.52;;;0.52;;
40074;SDS011;26529;51.530;11.754;2023-03-31T16:40:28;1.13;;;1.00;;
40074;SDS011;26529;51.530;11.754;2023-03-31T16:43:06;1.42;;;0.90;;
40074;SDS011;26529;51.530;11.754;2023-03-31T16:45:35;1.20;;;1.10;;
40074;SDS011;26529;51.530;11.754;2023-03-31T16:48:01;1.05;;;0.88;;
40074;SDS011;26529;51.530;11.754;2023-03-31T16:50:27;1.20;;;0.95;;
40074;SDS011;26529;51.530;11.754;2023-03-31T16:52:53;1.13;;;1.02;;
40074;SDS011;26529;51.530;11.754;2023-03-31T16:55:18;1.30;;;0.90;;
40074;SDS011;26529;51.530;11.754;2023-03-31T16:57:44;1.33;;;1.02;;
40074;SDS011;26529;51.530;11.754;2023-03-31T17:00:09;0.90;;;0.90;;
40074;SDS011;26529;51.530;11.754;2023-03-31T17:02:35;0.85;;;0.85;;
40074;SDS011;26529;51.530;11.754;2023-03-31T17:05:01;1.25;;;1.15;;
40074;SDS011;26529;51.530;11.754;2023-03-31T17:07:27;1.00;;;0.82;;
40074;SDS011;26529;51.530;11.754;2023-03-31T17:09:52;1.25;;;0.93;;
40074;SDS011;26529;51.530;11.754;2023-03-31T17:12:18;1.00;;;0.90;;
40074;SDS011;26529;51.530;11.754;2023-03-31T17:14:43;1.00;;;0.90;;